createdAt,value
2018-07-04T00:01:32.590Z,0.50
2018-07-04T00:03:54.226Z,0.50
2018-07-04T00:06:15.837Z,0.73
2018-07-04T00:08:37.523Z,0.70
2018-07-04T00:10:58.920Z,0.70
2018-07-04T00:13:20.261Z,0.62
2018-07-04T00:15:41.760Z,0.78
2018-07-04T00:18:04.797Z,0.77
2018-07-04T00:20:31.516Z,0.60
2018-07-04T00:22:53.015Z,0.70
2018-07-04T00:25:14.647Z,0.70
2018-07-04T00:27:36.040Z,0.80
2018-07-04T00:29:51.468Z,0.70
2018-07-04T00:32:12.721Z,0.80
2018-07-04T00:34:34.107Z,0.78
2018-07-04T00:36:55.349Z,0.70
2018-07-04T00:39:16.625Z,0.90
2018-07-04T00:41:38.125Z,0.80
2018-07-04T00:43:59.411Z,0.70
2018-07-04T00:46:20.712Z,0.60
2018-07-04T00:48:42.056Z,0.75
2018-07-04T00:51:03.395Z,0.75
2018-07-04T00:53:25.735Z,0.70
2018-07-04T00:55:47.072Z,0.70
2018-07-04T00:58:08.470Z,0.70
2018-07-04T01:00:30.257Z,0.82
2018-07-04T01:02:52.255Z,0.60
2018-07-04T01:05:14.074Z,0.75
2018-07-04T01:07:35.414Z,0.60
2018-07-04T01:09:57.110Z,0.80
2018-07-04T01:12:19.202Z,0.60
2018-07-04T01:14:40.701Z,0.83
2018-07-04T01:17:02.300Z,0.70
2018-07-04T01:19:23.620Z,0.60
2018-07-04T01:21:40.335Z,0.70
2018-07-04T01:24:02.765Z,0.57
2018-07-04T01:26:24.189Z,0.53
2018-07-04T01:28:48.320Z,0.70
2018-07-04T01:31:10.105Z,0.70
2018-07-04T01:33:31.586Z,0.60
2018-07-04T01:35:53.261Z,0.70
2018-07-04T01:38:14.725Z,1.00
2018-07-04T01:40:36.622Z,0.65
2018-07-04T01:42:58.502Z,0.78
2018-07-04T01:45:20.392Z,0.70
2018-07-04T01:47:41.835Z,0.67
2018-07-04T01:50:04.162Z,0.70
2018-07-04T01:52:26.572Z,0.70
2018-07-04T01:54:48.443Z,0.50
2018-07-04T01:57:10.132Z,0.70
2018-07-04T01:59:31.416Z,0.63
2018-07-04T02:01:52.862Z,0.88
2018-07-04T02:04:15.063Z,0.60
2018-07-04T02:06:37.286Z,0.60
2018-07-04T02:08:58.651Z,0.60
2018-07-04T02:11:20.973Z,0.70
2018-07-04T02:13:42.628Z,0.77
2018-07-04T02:16:04.213Z,1.03
2018-07-04T02:18:26.809Z,0.73
2018-07-04T02:20:48.254Z,0.80
2018-07-04T02:23:09.853Z,0.60
2018-07-04T02:25:31.183Z,0.80
2018-07-04T02:27:52.522Z,0.90
2018-07-04T02:30:14.414Z,0.90
2018-07-04T02:32:36.298Z,0.60
2018-07-04T02:34:59.721Z,0.90
2018-07-04T02:37:20.980Z,0.85
2018-07-04T02:39:42.376Z,0.80
2018-07-04T02:42:03.771Z,0.90
2018-07-04T02:44:25.124Z,0.80
2018-07-04T02:46:47.128Z,0.80
2018-07-04T02:49:08.532Z,0.70
2018-07-04T02:51:30.093Z,0.90
2018-07-04T02:53:51.502Z,0.90
2018-07-04T02:56:12.776Z,0.70
2018-07-04T02:58:34.048Z,0.60
2018-07-04T03:00:55.488Z,0.50
2018-07-04T03:03:16.997Z,0.70
2018-07-04T03:05:38.107Z,0.78
2018-07-04T03:07:53.974Z,1.02
2018-07-04T03:10:15.430Z,1.13
2018-07-04T03:12:36.752Z,1.40
2018-07-04T03:14:58.387Z,1.10
2018-07-04T03:17:19.862Z,1.25
2018-07-04T03:19:41.183Z,1.52
2018-07-04T03:22:03.068Z,1.15
2018-07-04T03:24:24.308Z,1.25
2018-07-04T03:26:45.869Z,1.30
2018-07-04T03:29:07.633Z,1.23
2018-07-04T03:31:28.972Z,1.40
2018-07-04T03:33:51.620Z,1.20
2018-07-04T03:36:13.115Z,1.00
2018-07-04T03:38:34.493Z,1.00
2018-07-04T03:40:55.615Z,1.10
2018-07-04T03:43:16.966Z,1.50
2018-07-04T03:45:38.408Z,1.30
2018-07-04T03:47:59.762Z,1.70
2018-07-04T03:50:21.149Z,1.33
2018-07-04T03:52:43.310Z,1.30
2018-07-04T03:55:04.727Z,1.40
2018-07-04T03:57:25.960Z,1.07
2018-07-04T03:59:47.882Z,1.43
2018-07-04T04:02:09.290Z,1.03
2018-07-04T04:04:30.850Z,1.40
2018-07-04T04:06:52.160Z,1.30
2018-07-04T04:09:13.618Z,1.15
2018-07-04T04:11:34.930Z,1.50
2018-07-04T04:13:57.189Z,1.50
2018-07-04T04:16:18.773Z,1.47
2018-07-04T04:18:40.005Z,1.37
2018-07-04T04:21:01.699Z,1.27
2018-07-04T04:23:23.194Z,1.30
2018-07-04T04:25:44.609Z,1.40
2018-07-04T04:28:06.046Z,1.30
2018-07-04T04:30:28.550Z,1.30
2018-07-04T04:32:50.013Z,1.20
2018-07-04T04:35:11.875Z,1.53
2018-07-04T04:37:33.482Z,1.30
2018-07-04T04:39:54.880Z,1.52
2018-07-04T04:42:16.361Z,1.40
2018-07-04T04:44:37.598Z,1.30
2018-07-04T04:46:59.027Z,1.60
2018-07-04T04:49:20.396Z,1.40
2018-07-04T04:51:41.512Z,1.40
2018-07-04T04:54:02.651Z,1.53
2018-07-04T04:56:23.958Z,1.63
2018-07-04T04:58:45.122Z,1.40
2018-07-04T05:01:06.413Z,1.20
2018-07-04T05:03:28.896Z,1.87
2018-07-04T05:05:50.226Z,1.80
2018-07-04T05:08:11.413Z,1.60
2018-07-04T05:10:33.260Z,1.67
2018-07-04T05:12:54.697Z,1.70
2018-07-04T05:15:16.167Z,1.57
2018-07-04T05:17:37.587Z,1.90
2018-07-04T05:19:59.110Z,1.60
2018-07-04T05:22:20.395Z,1.70
2018-07-04T05:24:41.826Z,1.60
2018-07-04T05:27:03.416Z,2.03
2018-07-04T05:29:24.894Z,1.70
2018-07-04T05:31:46.393Z,2.00
2018-07-04T05:34:07.829Z,1.60
2018-07-04T05:36:29.607Z,1.57
2018-07-04T05:38:51.172Z,1.77
2018-07-04T05:41:12.676Z,1.70
2018-07-04T05:43:34.034Z,1.95
2018-07-04T05:45:55.342Z,1.80
2018-07-04T05:48:16.678Z,1.60
2018-07-04T05:50:38.064Z,1.70
2018-07-04T05:52:59.368Z,2.00
2018-07-04T05:55:20.751Z,1.90
2018-07-04T05:57:42.079Z,1.90
2018-07-04T06:00:03.538Z,2.15
2018-07-04T06:02:18.874Z,1.87
2018-07-04T06:04:40.256Z,1.80
2018-07-04T06:06:55.522Z,1.67
2018-07-04T06:09:17.098Z,2.30
2018-07-04T06:11:38.682Z,2.27
2018-07-04T06:14:00.196Z,2.20
2018-07-04T06:16:21.740Z,2.27
2018-07-04T06:18:37.281Z,2.07
2018-07-04T06:20:58.743Z,1.90
2018-07-04T06:23:20.042Z,2.00
2018-07-04T06:25:41.563Z,2.02
2018-07-04T06:28:02.906Z,2.02
2018-07-04T06:30:24.334Z,2.10
2018-07-04T06:32:45.812Z,2.13
2018-07-04T06:35:07.168Z,1.65
2018-07-04T06:37:28.718Z,2.17
2018-07-04T06:39:31.670Z,2.10
2018-07-04T06:41:34.409Z,2.30
2018-07-04T06:43:37.136Z,1.93
2018-07-04T06:45:39.896Z,2.27
2018-07-04T06:47:42.607Z,2.25
2018-07-04T06:49:45.327Z,1.92
2018-07-04T06:51:48.490Z,2.17
2018-07-04T06:53:52.189Z,2.07
2018-07-04T06:55:54.928Z,2.00
2018-07-04T06:57:57.677Z,2.00
2018-07-04T07:00:00.457Z,1.80
2018-07-04T07:02:09.910Z,1.82
2018-07-04T07:04:31.389Z,1.80
2018-07-04T07:06:52.945Z,1.63
2018-07-04T07:09:14.406Z,1.50
2018-07-04T07:11:35.659Z,1.70
2018-07-04T07:13:56.866Z,1.47
2018-07-04T07:16:18.114Z,1.60
2018-07-04T07:18:39.541Z,1.37
2018-07-04T07:21:00.960Z,1.77
2018-07-04T07:23:22.840Z,1.90
2018-07-04T07:25:44.330Z,1.50
2018-07-04T07:28:05.684Z,1.50
2018-07-04T07:30:27.163Z,1.77
2018-07-04T07:32:48.482Z,1.77
2018-07-04T07:35:11.099Z,1.50
2018-07-04T07:37:32.379Z,1.33
2018-07-04T07:39:47.582Z,1.30
2018-07-04T07:42:08.874Z,1.20
2018-07-04T07:44:31.323Z,1.20
2018-07-04T07:46:52.888Z,1.37
2018-07-04T07:49:14.241Z,1.20
2018-07-04T07:51:35.558Z,1.40
2018-07-04T07:53:57.031Z,1.30
2018-07-04T07:56:18.418Z,1.10
2018-07-04T07:58:39.837Z,1.15
2018-07-04T08:01:01.255Z,1.07
2018-07-04T08:03:22.714Z,1.23
2018-07-04T08:05:43.914Z,0.70
2018-07-04T08:08:05.422Z,1.05
2018-07-04T08:10:26.718Z,0.90
2018-07-04T08:12:48.130Z,1.13
2018-07-04T08:15:03.372Z,0.80
2018-07-04T08:17:24.703Z,0.90
2018-07-04T08:19:46.112Z,1.10
2018-07-04T08:22:07.498Z,0.90
2018-07-04T08:24:28.874Z,0.83
2018-07-04T08:26:53.744Z,0.93
2018-07-04T08:29:17.364Z,1.02
2018-07-04T08:31:40.692Z,1.10
2018-07-04T08:34:04.608Z,0.83
2018-07-04T08:36:28.396Z,0.75
2018-07-04T08:38:49.837Z,0.68
2018-07-04T08:41:12.479Z,0.80
2018-07-04T08:43:33.871Z,1.20
2018-07-04T08:45:55.343Z,0.53
2018-07-04T08:48:16.743Z,0.48
2018-07-04T08:50:38.212Z,0.60
2018-07-04T08:52:59.748Z,0.90
2018-07-04T08:55:21.156Z,0.80
2018-07-04T08:57:42.521Z,0.77
2018-07-04T09:00:03.982Z,0.50
2018-07-04T09:02:25.344Z,0.50
2018-07-04T09:04:46.896Z,0.70
2018-07-04T09:07:08.289Z,0.90
2018-07-04T09:09:29.680Z,0.85
2018-07-04T09:11:52.376Z,0.70
2018-07-04T09:14:13.642Z,0.50
2018-07-04T09:16:28.883Z,0.57
2018-07-04T09:18:50.446Z,0.70
2018-07-04T09:21:12.365Z,0.70
2018-07-04T09:23:34.042Z,0.90
2018-07-04T09:25:55.305Z,0.50
2018-07-04T09:28:16.582Z,0.60
2018-07-04T09:30:32.219Z,0.60
2018-07-04T09:32:53.695Z,0.60
2018-07-04T09:35:15.263Z,0.80
2018-07-04T09:37:36.572Z,0.47
2018-07-04T09:39:57.938Z,0.60
2018-07-04T09:42:19.303Z,0.50
2018-07-04T09:44:40.645Z,0.60
2018-07-04T09:47:02.858Z,0.40
2018-07-04T09:49:24.692Z,0.50
2018-07-04T09:51:46.213Z,0.60
2018-07-04T09:54:01.634Z,0.50
2018-07-04T09:56:23.051Z,0.60
2018-07-04T09:58:44.430Z,0.40
2018-07-04T10:01:11.161Z,0.40
2018-07-04T10:03:33.105Z,0.60
2018-07-04T10:05:54.769Z,0.53
2018-07-04T10:08:16.332Z,0.47
2018-07-04T10:10:37.635Z,0.45
2018-07-04T10:12:58.909Z,0.47
2018-07-04T10:15:14.265Z,0.50
2018-07-04T10:17:36.392Z,0.50
2018-07-04T10:19:58.114Z,0.66
2018-07-04T10:22:19.541Z,0.50
2018-07-04T10:24:41.009Z,0.40
2018-07-04T10:27:02.318Z,0.40
2018-07-04T10:29:23.686Z,0.40
2018-07-04T10:31:45.059Z,0.70
2018-07-04T10:34:06.419Z,0.40
2018-07-04T10:36:27.971Z,0.70
2018-07-04T10:38:49.324Z,0.50
2018-07-04T10:41:10.681Z,0.43
2018-07-04T10:43:31.978Z,0.50
2018-07-04T10:45:53.762Z,0.45
2018-07-04T10:48:09.210Z,0.40
2018-07-04T10:50:30.674Z,0.60
2018-07-04T10:52:51.972Z,0.70
2018-07-04T10:55:13.958Z,0.68
2018-07-04T10:57:35.215Z,0.75
2018-07-04T10:59:56.556Z,0.70
2018-07-04T11:02:17.778Z,0.62
2018-07-04T11:04:39.264Z,0.42
2018-07-04T11:07:00.562Z,0.72
2018-07-04T11:09:21.828Z,0.70
2018-07-04T11:11:43.262Z,0.60
2018-07-04T11:14:04.755Z,0.67
2018-07-04T11:16:26.142Z,0.77
2018-07-04T11:18:41.492Z,0.50
2018-07-04T11:21:02.803Z,0.90
2018-07-04T11:23:24.138Z,0.90
2018-07-04T11:25:45.452Z,0.70
2018-07-04T11:28:07.031Z,0.83
2018-07-04T11:30:28.559Z,1.00
2018-07-04T11:32:49.928Z,0.85
2018-07-04T11:35:11.180Z,0.93
2018-07-04T11:37:27.926Z,0.70
2018-07-04T11:39:49.838Z,0.88
2018-07-04T11:42:11.261Z,0.90
2018-07-04T11:44:33.173Z,0.80
2018-07-04T11:46:35.923Z,1.35
2018-07-04T11:48:38.657Z,0.72
2018-07-04T11:50:41.391Z,1.05
2018-07-04T11:52:44.425Z,1.07
2018-07-04T11:54:47.134Z,0.78
2018-07-04T11:56:49.888Z,0.72
2018-07-04T11:58:52.613Z,0.70
2018-07-04T12:00:55.948Z,0.90
2018-07-04T12:02:58.672Z,1.00
2018-07-04T12:05:20.113Z,0.62
2018-07-04T12:07:22.884Z,0.70
2018-07-04T12:09:25.624Z,1.05
2018-07-04T12:11:28.604Z,1.00
2018-07-04T12:13:31.303Z,0.95
2018-07-04T12:15:34.006Z,0.70
2018-07-04T12:17:36.818Z,1.25
2018-07-04T12:19:39.627Z,1.02
2018-07-04T12:21:42.631Z,0.85
2018-07-04T12:23:45.427Z,0.70
2018-07-04T12:25:48.144Z,0.97
2018-07-04T12:27:50.895Z,0.90
2018-07-04T12:29:53.599Z,1.00
2018-07-04T12:31:56.465Z,1.05
2018-07-04T12:33:59.169Z,0.70
2018-07-04T12:36:02.102Z,0.60
2018-07-04T12:38:05.177Z,0.80
2018-07-04T12:40:07.903Z,0.75
2018-07-04T12:42:10.642Z,0.77
2018-07-04T12:44:13.507Z,0.70
2018-07-04T12:46:16.765Z,0.68
2018-07-04T12:48:19.534Z,0.80
2018-07-04T12:50:27.754Z,0.50
2018-07-04T12:52:30.754Z,0.60
2018-07-04T12:54:39.744Z,0.80
2018-07-04T12:57:01.251Z,0.65
2018-07-04T12:59:23.165Z,1.10
2018-07-04T13:01:45.430Z,0.88
2018-07-04T13:04:06.786Z,0.80
2018-07-04T13:06:28.659Z,0.73
2018-07-04T13:08:50.396Z,0.93
2018-07-04T13:11:13.047Z,1.10
2018-07-04T13:13:35.801Z,0.90
2018-07-04T13:15:57.466Z,0.80
2018-07-04T13:18:19.080Z,0.85
2018-07-04T13:20:40.422Z,0.96
2018-07-04T13:23:01.771Z,1.47
2018-07-04T13:25:23.091Z,0.90
2018-07-04T13:27:44.451Z,0.93
2018-07-04T13:30:05.853Z,0.90
2018-07-04T13:32:27.272Z,0.98
2018-07-04T13:34:49.402Z,0.72
2018-07-04T13:37:10.734Z,0.70
2018-07-04T13:39:32.322Z,0.80
2018-07-04T13:41:53.788Z,0.68
2018-07-04T13:44:16.366Z,0.70
2018-07-04T13:46:37.618Z,0.75
2018-07-04T13:48:58.969Z,0.90
2018-07-04T13:51:20.627Z,0.68
2018-07-04T13:53:42.254Z,0.75
2018-07-04T13:56:03.571Z,1.17
2018-07-04T13:58:25.060Z,1.00
2018-07-04T14:00:46.434Z,0.82
2018-07-04T14:03:01.842Z,1.12
2018-07-04T14:05:23.219Z,1.02
2018-07-04T14:07:44.806Z,0.90
2018-07-04T14:10:06.550Z,1.22
2018-07-04T14:12:28.062Z,1.10
2018-07-04T14:14:49.463Z,1.30
2018-07-04T14:17:10.887Z,1.27
2018-07-04T14:19:26.222Z,1.27
2018-07-04T14:21:47.678Z,1.32
2018-07-04T14:24:09.540Z,1.37
2018-07-04T14:26:31.061Z,1.50
2018-07-04T14:28:52.438Z,1.57
2018-07-04T14:31:13.595Z,1.10
2018-07-04T14:33:35.133Z,1.40
2018-07-04T14:35:57.078Z,1.02
2018-07-04T14:38:18.574Z,1.10
2018-07-04T14:40:40.060Z,1.42
2018-07-04T14:43:02.009Z,1.30
2018-07-04T14:45:23.366Z,1.40
2018-07-04T14:47:44.795Z,1.37
2018-07-04T14:50:06.298Z,1.25
2018-07-04T14:52:27.891Z,1.50
2018-07-04T14:54:49.328Z,1.37
2018-07-04T14:57:11.014Z,1.63
2018-07-04T14:59:32.327Z,1.43
2018-07-04T15:01:53.806Z,1.10
2018-07-04T15:04:15.323Z,1.50
2018-07-04T15:06:36.698Z,1.15
2018-07-04T15:08:59.243Z,1.60
2018-07-04T15:11:20.696Z,1.62
2018-07-04T15:13:42.207Z,1.67
2018-07-04T15:16:03.596Z,1.77
2018-07-04T15:18:26.084Z,1.80
2018-07-04T15:20:47.440Z,1.17
2018-07-04T15:23:08.897Z,1.63
2018-07-04T15:25:31.046Z,1.57
2018-07-04T15:27:52.547Z,1.75
2018-07-04T15:30:13.927Z,1.90
2018-07-04T15:32:35.432Z,1.47
2018-07-04T15:34:50.794Z,1.70
2018-07-04T15:37:12.596Z,1.52
2018-07-04T15:39:34.203Z,2.13
2018-07-04T15:41:55.828Z,1.80
2018-07-04T15:44:17.518Z,1.52
2018-07-04T15:46:39.583Z,1.98
2018-07-04T15:49:01.212Z,1.70
2018-07-04T15:51:23.941Z,1.62
2018-07-04T15:53:45.232Z,1.60
2018-07-04T15:56:06.519Z,1.53
2018-07-04T15:58:28.814Z,1.50
2018-07-04T16:00:50.694Z,2.20
2018-07-04T16:03:12.234Z,1.80
2018-07-04T16:05:33.757Z,2.10
2018-07-04T16:07:55.261Z,1.60
2018-07-04T16:10:16.962Z,1.77
2018-07-04T16:12:40.384Z,1.80
2018-07-04T16:15:01.916Z,1.67
2018-07-04T16:17:23.407Z,1.45
2018-07-04T16:19:45.159Z,1.73
2018-07-04T16:22:06.636Z,1.70
2018-07-04T16:24:28.079Z,1.27
2018-07-04T16:26:49.538Z,1.72
2018-07-04T16:29:11.093Z,1.75
2018-07-04T16:31:32.687Z,1.73
2018-07-04T16:33:48.198Z,2.50
2018-07-04T16:36:09.799Z,1.85
2018-07-04T16:38:31.087Z,1.57
2018-07-04T16:40:52.582Z,1.80
2018-07-04T16:43:14.110Z,1.90
2018-07-04T16:45:35.762Z,2.83
2018-07-04T16:47:57.329Z,1.98
2018-07-04T16:50:19.961Z,1.83
2018-07-04T16:52:41.379Z,2.05
2018-07-04T16:55:02.817Z,1.65
2018-07-04T16:57:24.490Z,1.77
2018-07-04T16:59:46.026Z,1.33
2018-07-04T17:02:07.386Z,1.87
2018-07-04T17:04:28.585Z,2.67
2018-07-04T17:06:50.155Z,6.87
2018-07-04T17:09:11.587Z,6.10
2018-07-04T17:11:33.548Z,4.03
2018-07-04T17:13:54.966Z,2.40
2018-07-04T17:16:16.238Z,2.13
2018-07-04T17:18:37.983Z,3.50
2018-07-04T17:21:00.448Z,1.80
2018-07-04T17:23:21.971Z,2.37
2018-07-04T17:25:37.345Z,2.45
2018-07-04T17:27:58.962Z,1.98
2018-07-04T17:30:20.633Z,2.10
2018-07-04T17:32:42.059Z,2.08
2018-07-04T17:35:03.453Z,1.75
2018-07-04T17:37:24.880Z,1.62
2018-07-04T17:39:40.410Z,1.93
2018-07-04T17:42:01.911Z,2.47
2018-07-04T17:44:23.433Z,1.70
2018-07-04T17:46:45.000Z,2.10
2018-07-04T17:49:06.370Z,1.90
2018-07-04T17:51:28.007Z,1.50
2018-07-04T17:53:50.217Z,2.03
2018-07-04T17:56:11.833Z,1.87
2018-07-04T17:58:33.242Z,1.73
2018-07-04T18:00:54.582Z,2.05
2018-07-04T18:03:15.673Z,1.87
2018-07-04T18:05:37.174Z,2.20
2018-07-04T18:07:58.577Z,1.57
2018-07-04T18:10:20.898Z,1.50
2018-07-04T18:12:42.257Z,1.80
2018-07-04T18:15:04.784Z,1.65
2018-07-04T18:17:26.015Z,1.57
2018-07-04T18:19:47.453Z,1.90
2018-07-04T18:22:11.068Z,1.87
2018-07-04T18:24:34.083Z,2.17
2018-07-04T18:26:58.838Z,1.85
2018-07-04T18:29:20.762Z,2.05
2018-07-04T18:31:43.075Z,2.05
2018-07-04T18:34:04.899Z,1.87
2018-07-04T18:36:27.422Z,2.00
2018-07-04T18:38:50.763Z,2.08
2018-07-04T18:41:13.371Z,1.98
2018-07-04T18:43:39.209Z,2.17
2018-07-04T18:46:02.534Z,1.90
2018-07-04T18:48:25.327Z,2.17
2018-07-04T18:50:48.487Z,1.80
2018-07-04T18:53:11.928Z,2.33
2018-07-04T18:55:34.785Z,1.80
2018-07-04T18:57:57.464Z,2.10
2018-07-04T19:00:21.215Z,1.80
2018-07-04T19:02:43.818Z,1.90
2018-07-04T19:05:05.082Z,1.90
2018-07-04T19:07:26.564Z,2.33
2018-07-04T19:09:47.994Z,2.07
2018-07-04T19:12:09.242Z,2.12
2018-07-04T19:14:30.491Z,1.97
2018-07-04T19:16:45.991Z,2.00
2018-07-04T19:19:07.994Z,2.42
2018-07-04T19:21:29.442Z,2.00
2018-07-04T19:23:50.762Z,1.90
2018-07-04T19:26:06.370Z,1.83
2018-07-04T19:28:28.358Z,1.97
2018-07-04T19:30:50.517Z,2.20
2018-07-04T19:33:11.981Z,2.07
2018-07-04T19:35:33.477Z,2.00
2018-07-04T19:37:55.043Z,2.10
2018-07-04T19:40:16.211Z,1.70
2018-07-04T19:42:37.756Z,2.17
2018-07-04T19:44:59.341Z,2.17
2018-07-04T19:47:21.319Z,2.47
2018-07-04T19:49:43.372Z,2.07
2018-07-04T19:52:04.918Z,2.27
2018-07-04T19:54:27.088Z,2.08
2018-07-04T19:56:48.734Z,2.10
2018-07-04T19:59:10.209Z,2.30
2018-07-04T20:01:31.572Z,2.50
2018-07-04T20:03:53.025Z,2.10
2018-07-04T20:06:14.707Z,2.00
2018-07-04T20:08:37.276Z,2.10
2018-07-04T20:10:58.998Z,1.90
2018-07-04T20:13:21.589Z,2.10
2018-07-04T20:15:42.920Z,2.20
2018-07-04T20:18:04.212Z,2.40
2018-07-04T20:20:25.538Z,2.37
2018-07-04T20:22:47.087Z,2.02
2018-07-04T20:25:08.528Z,2.00
2018-07-04T20:27:30.009Z,2.43
2018-07-04T20:29:51.531Z,2.20
2018-07-04T20:32:12.994Z,1.90
2018-07-04T20:34:34.422Z,2.42
2018-07-04T20:36:55.927Z,2.40
2018-07-04T20:39:17.361Z,2.10
2018-07-04T20:41:38.621Z,2.42
2018-07-04T20:44:00.130Z,2.23
2018-07-04T20:46:21.962Z,2.20
2018-07-04T20:48:43.395Z,2.50
2018-07-04T20:51:04.751Z,2.60
2018-07-04T20:53:26.092Z,2.77
2018-07-04T20:55:47.667Z,2.42
2018-07-04T20:58:08.999Z,2.47
2018-07-04T21:00:30.396Z,2.50
2018-07-04T21:02:51.722Z,2.35
2018-07-04T21:05:07.005Z,2.20
2018-07-04T21:07:28.234Z,2.53
2018-07-04T21:09:44.013Z,2.70
2018-07-04T21:12:05.603Z,2.90
2018-07-04T21:14:27.088Z,2.65
2018-07-04T21:16:48.461Z,2.33
2018-07-04T21:19:10.310Z,2.70
2018-07-04T21:21:31.494Z,2.53
2018-07-04T21:23:52.884Z,2.37
2018-07-04T21:26:14.195Z,2.20
2018-07-04T21:28:35.537Z,2.55
2018-07-04T21:30:56.915Z,2.27
2018-07-04T21:33:18.366Z,2.33
2018-07-04T21:35:39.918Z,2.52
2018-07-04T21:38:01.460Z,2.27
2018-07-04T21:40:24.087Z,2.27
2018-07-04T21:42:45.546Z,2.20
2018-07-04T21:45:07.278Z,2.23
2018-07-04T21:47:28.731Z,2.40
2018-07-04T21:49:50.050Z,2.63
2018-07-04T21:52:11.454Z,2.50
2018-07-04T21:54:32.894Z,2.30
2018-07-04T21:56:54.226Z,2.52
2018-07-04T21:59:15.560Z,2.85
2018-07-04T22:01:37.030Z,2.67
2018-07-04T22:03:58.577Z,2.50
2018-07-04T22:06:20.188Z,2.53
2018-07-04T22:08:41.698Z,2.77
2018-07-04T22:10:57.882Z,2.27
2018-07-04T22:13:19.359Z,2.50
2018-07-04T22:15:40.784Z,2.65
2018-07-04T22:18:02.264Z,2.37
2018-07-04T22:20:24.404Z,2.60
2018-07-04T22:22:45.939Z,2.30
2018-07-04T22:25:07.314Z,2.50
2018-07-04T22:27:28.663Z,2.30
2018-07-04T22:29:51.608Z,2.47
2018-07-04T22:32:13.018Z,3.02
2018-07-04T22:34:34.343Z,2.87
2018-07-04T22:36:55.866Z,2.43
2018-07-04T22:39:17.213Z,2.65
2018-07-04T22:41:38.636Z,2.40
2018-07-04T22:44:00.089Z,2.43
2018-07-04T22:46:21.763Z,2.73
2018-07-04T22:48:44.164Z,2.40
2018-07-04T22:51:05.659Z,2.73
2018-07-04T22:53:26.989Z,3.00
2018-07-04T22:55:48.335Z,2.50
2018-07-04T22:58:09.714Z,2.40
2018-07-04T23:00:31.062Z,2.50
2018-07-04T23:02:52.352Z,2.27
2018-07-04T23:05:13.603Z,2.75
2018-07-04T23:07:34.995Z,2.72
2018-07-04T23:09:56.203Z,2.90
2018-07-04T23:12:17.524Z,2.92
2018-07-04T23:14:38.784Z,2.85
2018-07-04T23:17:00.137Z,2.47
2018-07-04T23:19:21.418Z,2.30
2018-07-04T23:21:38.110Z,2.60
2018-07-04T23:23:59.434Z,2.53
2018-07-04T23:26:21.146Z,2.37
2018-07-04T23:28:42.738Z,2.40
2018-07-04T23:31:04.911Z,2.58
2018-07-04T23:33:26.286Z,2.50
2018-07-04T23:35:47.855Z,2.60
2018-07-04T23:38:09.171Z,2.60
2018-07-04T23:40:33.131Z,2.40
2018-07-04T23:42:54.495Z,2.85
2018-07-04T23:45:16.101Z,2.20
2018-07-04T23:47:37.250Z,2.60
2018-07-04T23:49:58.630Z,2.40
2018-07-04T23:52:20.183Z,2.40
2018-07-04T23:54:41.588Z,2.45
2018-07-04T23:57:02.962Z,2.47
2018-07-04T23:59:24.906Z,2.80
